sensor_id;sensor_type;location;lat;lon;timestamp;temperature;humidity
74822;DHT22;63353;48.702;8.884;2023-09-18T00:01:15;17.40;99.90
74822;DHT22;63353;48.702;8.884;2023-09-18T00:03:47;17.30;99.90
74822;DHT22;63353;48.702;8.884;2023-09-18T00:06:16;17.20;99.90
74822;DHT22;63353;48.702;8.884;2023-09-18T00:08:41;17.10;99.90
74822;DHT22;63353;48.702;8.884;2023-09-18T00:11:16;17.10;99.90
74822;DHT22;63353;48.702;8.884;2023-09-18T00:13:42;17.00;99.90
74822;DHT22;63353;48.702;8.884;2023-09-18T00:16:08;16.90;99.90
74822;DHT22;63353;48.702;8.884;2023-09-18T00:18:34;16.80;99.90
74822;DHT22;63353;48.702;8.884;2023-09-18T00:20:59;16.70;99.90
74822;DHT22;63353;48.702;8.884;2023-09-18T00:23:31;16.70;99.90
74822;DHT22;63353;48.702;8.884;2023-09-18T00:25:57;16.60;99.90
74822;DHT22;63353;48.702;8.884;2023-09-18T00:28:22;16.60;99.90
74822;DHT22;63353;48.702;8.884;2023-09-18T00:30:49;16.50;99.90
74822;DHT22;63353;48.702;8.884;2023-09-18T00:33:19;16.60;99.90
74822;DHT22;63353;48.702;8.884;2023-09-18T00:35:51;16.60;99.90
74822;DHT22;63353;48.702;8.884;2023-09-18T00:38:17;16.50;99.90
74822;DHT22;63353;48.702;8.884;2023-09-18T00:40:49;16.60;99.90
74822;DHT22;63353;48.702;8.884;2023-09-18T00:43:18;16.60;99.90
74822;DHT22;63353;48.702;8.884;2023-09-18T00:45:53;16.60;99.90
74822;DHT22;63353;48.702;8.884;2023-09-18T00:48:19;16.60;99.90
74822;DHT22;63353;48.702;8.884;2023-09-18T00:50:45;16.60;99.90
74822;DHT22;63353;48.702;8.884;2023-09-18T00:53:20;16.60;99.90
74822;DHT22;63353;48.702;8.884;2023-09-18T00:55:53;16.70;99.90
74822;DHT22;63353;48.702;8.884;2023-09-18T00:58:22;16.90;99.90
74822;DHT22;63353;48.702;8.884;2023-09-18T01:00:48;17.30;99.90
74822;DHT22;63353;48.702;8.884;2023-09-18T01:03:16;17.60;99.90
74822;DHT22;63353;48.702;8.884;2023-09-18T01:05:50;17.60;99.90
74822;DHT22;63353;48.702;8.884;2023-09-18T01:08:22;17.80;99.90
74822;DHT22;63353;48.702;8.884;2023-09-18T01:10:56;18.00;99.90
74822;DHT22;63353;48.702;8.884;2023-09-18T01:13:47;18.30;99.90
74822;DHT22;63353;48.702;8.884;2023-09-18T01:16:18;18.50;99.90
74822;DHT22;63353;48.702;8.884;2023-09-18T01:18:51;18.50;99.90
74822;DHT22;63353;48.702;8.884;2023-09-18T01:21:19;18.60;99.90
74822;DHT22;63353;48.702;8.884;2023-09-18T01:23:45;18.60;99.90
74822;DHT22;63353;48.702;8.884;2023-09-18T01:26:14;18.60;99.90
74822;DHT22;63353;48.702;8.884;2023-09-18T01:28:42;18.70;99.90
74822;DHT22;63353;48.702;8.884;2023-09-18T01:31:11;19.10;99.90
74822;DHT22;63353;48.702;8.884;2023-09-18T01:33:40;19.20;99.90
74822;DHT22;63353;48.702;8.884;2023-09-18T01:36:07;19.40;99.90
74822;DHT22;63353;48.702;8.884;2023-09-18T01:38:37;19.50;99.90
74822;DHT22;63353;48.702;8.884;2023-09-18T01:41:03;19.50;99.90
74822;DHT22;63353;48.702;8.884;2023-09-18T01:43:29;19.30;99.90
74822;DHT22;63353;48.702;8.884;2023-09-18T01:45:59;19.10;99.90
74822;DHT22;63353;48.702;8.884;2023-09-18T01:48:33;18.80;99.90
74822;DHT22;63353;48.702;8.884;2023-09-18T01:50:59;18.50;99.90
74822;DHT22;63353;48.702;8.884;2023-09-18T01:53:34;18.40;99.90
74822;DHT22;63353;48.702;8.884;2023-09-18T01:56:03;18.20;99.90
74822;DHT22;63353;48.702;8.884;2023-09-18T01:58:31;18.10;99.90
74822;DHT22;63353;48.702;8.884;2023-09-18T02:01:00;17.90;99.90
74822;DHT22;63353;48.702;8.884;2023-09-18T02:03:32;17.80;99.90
74822;DHT22;63353;48.702;8.884;2023-09-18T02:05:58;17.80;99.90
74822;DHT22;63353;48.702;8.884;2023-09-18T02:08:26;17.70;99.90
74822;DHT22;63353;48.702;8.884;2023-09-18T02:10:52;17.70;99.90
74822;DHT22;63353;48.702;8.884;2023-09-18T02:13:18;17.60;99.90
74822;DHT22;63353;48.702;8.884;2023-09-18T02:15:47;17.50;99.90
74822;DHT22;63353;48.702;8.884;2023-09-18T02:18:12;17.50;99.90
74822;DHT22;63353;48.702;8.884;2023-09-18T02:20:45;17.50;99.90
74822;DHT22;63353;48.702;8.884;2023-09-18T02:23:14;17.40;99.90
74822;DHT22;63353;48.702;8.884;2023-09-18T02:25:59;17.30;99.90
74822;DHT22;63353;48.702;8.884;2023-09-18T02:28:24;17.20;99.90
74822;DHT22;63353;48.702;8.884;2023-09-18T02:30:51;17.10;99.90
74822;DHT22;63353;48.702;8.884;2023-09-18T02:33:16;17.10;99.90
74822;DHT22;63353;48.702;8.884;2023-09-18T02:35:42;17.10;99.90
74822;DHT22;63353;48.702;8.884;2023-09-18T02:38:14;17.00;99.90
74822;DHT22;63353;48.702;8.884;2023-09-18T02:40:40;17.10;99.90
74822;DHT22;63353;48.702;8.884;2023-09-18T02:43:06;17.00;99.90
74822;DHT22;63353;48.702;8.884;2023-09-18T02:45:35;16.90;99.90
74822;DHT22;63353;48.702;8.884;2023-09-18T02:48:00;16.80;99.90
74822;DHT22;63353;48.702;8.884;2023-09-18T02:50:26;16.80;99.90
74822;DHT22;63353;48.702;8.884;2023-09-18T02:52:55;16.80;99.90
74822;DHT22;63353;48.702;8.884;2023-09-18T02:55:20;16.70;99.90
74822;DHT22;63353;48.702;8.884;2023-09-18T02:57:46;16.80;99.90
74822;DHT22;63353;48.702;8.884;2023-09-18T03:00:12;16.80;99.90
74822;DHT22;63353;48.702;8.884;2023-09-18T03:02:38;16.80;99.90
74822;DHT22;63353;48.702;8.884;2023-09-18T03:05:04;16.70;99.90
74822;DHT22;63353;48.702;8.884;2023-09-18T03:07:30;16.70;99.90
74822;DHT22;63353;48.702;8.884;2023-09-18T03:09:58;16.60;99.90
74822;DHT22;63353;48.702;8.884;2023-09-18T03:12:30;16.60;99.90
74822;DHT22;63353;48.702;8.884;2023-09-18T03:14:57;16.50;99.90
74822;DHT22;63353;48.702;8.884;2023-09-18T03:17:25;16.40;99.90
74822;DHT22;63353;48.702;8.884;2023-09-18T03:20:01;16.40;99.90
74822;DHT22;63353;48.702;8.884;2023-09-18T03:22:33;16.30;99.90
74822;DHT22;63353;48.702;8.884;2023-09-18T03:24:59;16.20;99.90
74822;DHT22;63353;48.702;8.884;2023-09-18T03:27:24;16.20;99.90
74822;DHT22;63353;48.702;8.884;2023-09-18T03:30:03;16.20;99.90
74822;DHT22;63353;48.702;8.884;2023-09-18T03:32:33;16.20;99.90
74822;DHT22;63353;48.702;8.884;2023-09-18T03:34:58;16.20;99.90
74822;DHT22;63353;48.702;8.884;2023-09-18T03:37:30;16.20;99.90
74822;DHT22;63353;48.702;8.884;2023-09-18T03:39:59;16.20;99.90
74822;DHT22;63353;48.702;8.884;2023-09-18T03:42:25;16.30;99.90
74822;DHT22;63353;48.702;8.884;2023-09-18T03:44:51;16.70;99.90
74822;DHT22;63353;48.702;8.884;2023-09-18T03:47:17;16.90;99.90
74822;DHT22;63353;48.702;8.884;2023-09-18T03:49:42;16.90;99.90
74822;DHT22;63353;48.702;8.884;2023-09-18T03:52:08;17.10;99.90
74822;DHT22;63353;48.702;8.884;2023-09-18T03:54:34;17.20;99.90
74822;DHT22;63353;48.702;8.884;2023-09-18T03:57:06;17.40;99.90
74822;DHT22;63353;48.702;8.884;2023-09-18T03:59:31;17.70;99.90
74822;DHT22;63353;48.702;8.884;2023-09-18T04:02:00;17.80;99.90
74822;DHT22;63353;48.702;8.884;2023-09-18T04:04:38;17.80;99.90
74822;DHT22;63353;48.702;8.884;2023-09-18T04:07:07;17.90;99.90
74822;DHT22;63353;48.702;8.884;2023-09-18T04:09:38;17.90;99.90
74822;DHT22;63353;48.702;8.884;2023-09-18T04:12:08;18.00;99.90
74822;DHT22;63353;48.702;8.884;2023-09-18T04:14:35;17.90;99.90
74822;DHT22;63353;48.702;8.884;2023-09-18T04:17:01;17.90;99.90
74822;DHT22;63353;48.702;8.884;2023-09-18T04:19:33;18.00;99.90
74822;DHT22;63353;48.702;8.884;2023-09-18T04:21:59;18.00;99.90
74822;DHT22;63353;48.702;8.884;2023-09-18T04:24:26;18.00;99.90
74822;DHT22;63353;48.702;8.884;2023-09-18T04:26:54;17.90;99.90
74822;DHT22;63353;48.702;8.884;2023-09-18T04:29:20;17.80;99.90
74822;DHT22;63353;48.702;8.884;2023-09-18T04:31:48;17.70;99.90
74822;DHT22;63353;48.702;8.884;2023-09-18T04:34:17;17.60;99.90
74822;DHT22;63353;48.702;8.884;2023-09-18T04:36:43;17.50;99.90
74822;DHT22;63353;48.702;8.884;2023-09-18T04:39:09;17.40;99.90
74822;DHT22;63353;48.702;8.884;2023-09-18T04:41:35;17.40;99.90
74822;DHT22;63353;48.702;8.884;2023-09-18T04:44:01;17.50;99.90
74822;DHT22;63353;48.702;8.884;2023-09-18T04:46:29;17.40;99.90
74822;DHT22;63353;48.702;8.884;2023-09-18T04:48:55;17.40;99.90
74822;DHT22;63353;48.702;8.884;2023-09-18T04:51:23;17.40;99.90
74822;DHT22;63353;48.702;8.884;2023-09-18T04:53:49;17.40;99.90
74822;DHT22;63353;48.702;8.884;2023-09-18T04:56:15;17.50;99.90
74822;DHT22;63353;48.702;8.884;2023-09-18T04:58:44;17.40;99.90
74822;DHT22;63353;48.702;8.884;2023-09-18T05:01:13;17.40;99.90
74822;DHT22;63353;48.702;8.884;2023-09-18T05:03:45;17.30;99.90
74822;DHT22;63353;48.702;8.884;2023-09-18T05:06:19;17.30;99.90
74822;DHT22;63353;48.702;8.884;2023-09-18T05:08:46;17.20;99.90
74822;DHT22;63353;48.702;8.884;2023-09-18T05:11:14;17.20;99.90
74822;DHT22;63353;48.702;8.884;2023-09-18T05:13:50;17.20;99.90
74822;DHT22;63353;48.702;8.884;2023-09-18T05:16:16;17.20;99.90
74822;DHT22;63353;48.702;8.884;2023-09-18T05:18:45;17.10;99.90
74822;DHT22;63353;48.702;8.884;2023-09-18T05:21:14;17.10;99.90
74822;DHT22;63353;48.702;8.884;2023-09-18T05:23:39;17.20;99.90
74822;DHT22;63353;48.702;8.884;2023-09-18T05:26:05;17.10;99.90
74822;DHT22;63353;48.702;8.884;2023-09-18T05:28:34;17.30;99.90
74822;DHT22;63353;48.702;8.884;2023-09-18T05:30:59;17.20;99.90
74822;DHT22;63353;48.702;8.884;2023-09-18T05:33:25;17.20;99.90
74822;DHT22;63353;48.702;8.884;2023-09-18T05:36:04;17.20;99.90
74822;DHT22;63353;48.702;8.884;2023-09-18T05:38:29;17.20;99.90
74822;DHT22;63353;48.702;8.884;2023-09-18T05:40:55;17.20;99.90
74822;DHT22;63353;48.702;8.884;2023-09-18T05:43:24;17.20;99.90
74822;DHT22;63353;48.702;8.884;2023-09-18T05:45:52;17.10;99.90
74822;DHT22;63353;48.702;8.884;2023-09-18T05:48:19;17.10;99.90
74822;DHT22;63353;48.702;8.884;2023-09-18T05:50:45;17.20;99.90
74822;DHT22;63353;48.702;8.884;2023-09-18T05:53:10;17.20;99.90
74822;DHT22;63353;48.702;8.884;2023-09-18T05:55:45;17.20;99.90
74822;DHT22;63353;48.702;8.884;2023-09-18T05:58:14;17.30;99.90
74822;DHT22;63353;48.702;8.884;2023-09-18T06:00:43;17.30;99.90
74822;DHT22;63353;48.702;8.884;2023-09-18T06:03:14;17.30;99.90
74822;DHT22;63353;48.702;8.884;2023-09-18T06:05:41;17.40;99.90
74822;DHT22;63353;48.702;8.884;2023-09-18T06:08:10;17.30;99.90
74822;DHT22;63353;48.702;8.884;2023-09-18T06:10:36;17.40;99.90
74822;DHT22;63353;48.702;8.884;2023-09-18T06:13:01;17.50;99.90
74822;DHT22;63353;48.702;8.884;2023-09-18T06:15:34;17.50;99.90
74822;DHT22;63353;48.702;8.884;2023-09-18T06:17:59;17.50;99.90
74822;DHT22;63353;48.702;8.884;2023-09-18T06:20:28;17.40;99.90
74822;DHT22;63353;48.702;8.884;2023-09-18T06:22:59;17.40;99.90
74822;DHT22;63353;48.702;8.884;2023-09-18T06:25:25;17.50;99.90
74822;DHT22;63353;48.702;8.884;2023-09-18T06:27:57;17.50;99.90
74822;DHT22;63353;48.702;8.884;2023-09-18T06:30:22;17.60;99.90
74822;DHT22;63353;48.702;8.884;2023-09-18T06:32:48;17.60;99.90
74822;DHT22;63353;48.702;8.884;2023-09-18T06:35:17;17.80;99.90
74822;DHT22;63353;48.702;8.884;2023-09-18T06:37:42;17.80;99.90
74822;DHT22;63353;48.702;8.884;2023-09-18T06:40:17;17.80;99.90
74822;DHT22;63353;48.702;8.884;2023-09-18T06:42:43;17.90;99.90
74822;DHT22;63353;48.702;8.884;2023-09-18T06:45:12;17.90;99.90
74822;DHT22;63353;48.702;8.884;2023-09-18T06:47:39;18.10;99.90
74822;DHT22;63353;48.702;8.884;2023-09-18T06:50:27;18.10;99.90
74822;DHT22;63353;48.702;8.884;2023-09-18T06:52:53;18.20;99.90
74822;DHT22;63353;48.702;8.884;2023-09-18T06:55:19;18.40;99.90
74822;DHT22;63353;48.702;8.884;2023-09-18T06:57:44;18.40;99.90
74822;DHT22;63353;48.702;8.884;2023-09-18T07:00:11;18.50;99.90
74822;DHT22;63353;48.702;8.884;2023-09-18T07:02:40;18.60;99.90
74822;DHT22;63353;48.702;8.884;2023-09-18T07:05:05;18.60;99.90
74822;DHT22;63353;48.702;8.884;2023-09-18T07:07:37;18.60;99.90
74822;DHT22;63353;48.702;8.884;2023-09-18T07:10:03;18.50;99.90
74822;DHT22;63353;48.702;8.884;2023-09-18T07:12:29;18.50;99.90
74822;DHT22;63353;48.702;8.884;2023-09-18T07:15:02;18.50;99.90
74822;DHT22;63353;48.702;8.884;2023-09-18T07:17:28;18.50;99.90
74822;DHT22;63353;48.702;8.884;2023-09-18T07:19:54;18.60;99.90
74822;DHT22;63353;48.702;8.884;2023-09-18T07:22:20;18.60;99.90
74822;DHT22;63353;48.702;8.884;2023-09-18T07:24:45;18.60;99.90
74822;DHT22;63353;48.702;8.884;2023-09-18T07:27:11;18.50;99.90
74822;DHT22;63353;48.702;8.884;2023-09-18T07:29:37;18.60;99.90
74822;DHT22;63353;48.702;8.884;2023-09-18T07:32:04;18.60;99.90
74822;DHT22;63353;48.702;8.884;2023-09-18T07:34:30;18.50;99.90
74822;DHT22;63353;48.702;8.884;2023-09-18T07:36:55;18.50;99.90
74822;DHT22;63353;48.702;8.884;2023-09-18T07:39:22;18.50;99.90
74822;DHT22;63353;48.702;8.884;2023-09-18T07:41:47;18.50;99.90
74822;DHT22;63353;48.702;8.884;2023-09-18T07:44:19;18.50;99.90
74822;DHT22;63353;48.702;8.884;2023-09-18T07:46:45;18.50;99.90
74822;DHT22;63353;48.702;8.884;2023-09-18T07:49:13;18.40;99.90
74822;DHT22;63353;48.702;8.884;2023-09-18T07:51:45;18.30;99.90
74822;DHT22;63353;48.702;8.884;2023-09-18T07:54:15;18.30;99.90
74822;DHT22;63353;48.702;8.884;2023-09-18T07:56:41;18.30;99.90
74822;DHT22;63353;48.702;8.884;2023-09-18T07:59:29;18.20;99.90
74822;DHT22;63353;48.702;8.884;2023-09-18T08:02:10;18.10;99.90
74822;DHT22;63353;48.702;8.884;2023-09-18T08:04:37;18.20;99.90
74822;DHT22;63353;48.702;8.884;2023-09-18T08:07:06;18.20;99.90
74822;DHT22;63353;48.702;8.884;2023-09-18T08:09:33;18.20;99.90
74822;DHT22;63353;48.702;8.884;2023-09-18T08:12:02;18.20;99.90
74822;DHT22;63353;48.702;8.884;2023-09-18T08:14:35;18.20;99.90
74822;DHT22;63353;48.702;8.884;2023-09-18T08:17:02;18.10;99.90
74822;DHT22;63353;48.702;8.884;2023-09-18T08:19:30;18.20;99.90
74822;DHT22;63353;48.702;8.884;2023-09-18T08:22:00;18.20;99.90
74822;DHT22;63353;48.702;8.884;2023-09-18T08:24:26;18.10;99.90
74822;DHT22;63353;48.702;8.884;2023-09-18T08:26:52;18.00;99.90
74822;DHT22;63353;48.702;8.884;2023-09-18T08:29:20;18.00;99.90
74822;DHT22;63353;48.702;8.884;2023-09-18T08:31:46;17.90;99.90
74822;DHT22;63353;48.702;8.884;2023-09-18T08:34:15;17.90;99.90
74822;DHT22;63353;48.702;8.884;2023-09-18T08:36:47;17.70;99.90
74822;DHT22;63353;48.702;8.884;2023-09-18T08:39:13;17.50;99.90
74822;DHT22;63353;48.702;8.884;2023-09-18T08:41:43;17.50;99.90
74822;DHT22;63353;48.702;8.884;2023-09-18T08:44:26;17.40;99.90
74822;DHT22;63353;48.702;8.884;2023-09-18T08:46:53;17.30;99.90
74822;DHT22;63353;48.702;8.884;2023-09-18T08:49:25;17.40;99.90
74822;DHT22;63353;48.702;8.884;2023-09-18T08:51:56;17.30;99.90
74822;DHT22;63353;48.702;8.884;2023-09-18T08:54:26;17.30;99.90
74822;DHT22;63353;48.702;8.884;2023-09-18T08:56:54;17.30;99.90
74822;DHT22;63353;48.702;8.884;2023-09-18T08:59:31;17.30;99.90
74822;DHT22;63353;48.702;8.884;2023-09-18T09:01:56;17.40;99.90
74822;DHT22;63353;48.702;8.884;2023-09-18T09:04:31;17.50;99.90
74822;DHT22;63353;48.702;8.884;2023-09-18T09:07:03;17.50;99.90
74822;DHT22;63353;48.702;8.884;2023-09-18T09:09:32;17.40;99.90
74822;DHT22;63353;48.702;8.884;2023-09-18T09:12:04;17.30;99.90
74822;DHT22;63353;48.702;8.884;2023-09-18T09:14:33;17.20;99.90
74822;DHT22;63353;48.702;8.884;2023-09-18T09:16:59;17.10;99.90
74822;DHT22;63353;48.702;8.884;2023-09-18T09:19:40;17.10;99.90
74822;DHT22;63353;48.702;8.884;2023-09-18T09:22:08;17.10;99.90
74822;DHT22;63353;48.702;8.884;2023-09-18T09:24:43;17.10;99.90
74822;DHT22;63353;48.702;8.884;2023-09-18T09:27:12;17.10;99.90
74822;DHT22;63353;48.702;8.884;2023-09-18T09:29:40;17.10;99.90
74822;DHT22;63353;48.702;8.884;2023-09-18T09:32:18;17.20;99.90
74822;DHT22;63353;48.702;8.884;2023-09-18T09:34:45;17.30;99.90
74822;DHT22;63353;48.702;8.884;2023-09-18T09:37:14;17.40;99.90
74822;DHT22;63353;48.702;8.884;2023-09-18T09:40:03;17.50;99.90
74822;DHT22;63353;48.702;8.884;2023-09-18T09:42:41;17.50;99.90
74822;DHT22;63353;48.702;8.884;2023-09-18T09:45:14;17.40;99.90
74822;DHT22;63353;48.702;8.884;2023-09-18T09:47:46;17.60;99.90
74822;DHT22;63353;48.702;8.884;2023-09-18T09:50:15;17.70;99.90
74822;DHT22;63353;48.702;8.884;2023-09-18T09:52:55;17.70;99.90
74822;DHT22;63353;48.702;8.884;2023-09-18T09:55:31;17.70;99.90
74822;DHT22;63353;48.702;8.884;2023-09-18T09:58:08;17.80;99.90
74822;DHT22;63353;48.702;8.884;2023-09-18T10:00:47;17.80;99.90
74822;DHT22;63353;48.702;8.884;2023-09-18T10:03:19;17.80;99.90
74822;DHT22;63353;48.702;8.884;2023-09-18T10:05:47;17.60;99.90
74822;DHT22;63353;48.702;8.884;2023-09-18T10:08:33;17.70;99.90
74822;DHT22;63353;48.702;8.884;2023-09-18T10:11:08;17.70;99.90
74822;DHT22;63353;48.702;8.884;2023-09-18T10:13:49;17.50;99.90
74822;DHT22;63353;48.702;8.884;2023-09-18T10:16:23;17.50;99.90
74822;DHT22;63353;48.702;8.884;2023-09-18T10:24:59;17.50;99.90
74822;DHT22;63353;48.702;8.884;2023-09-18T10:27:33;17.60;99.90
74822;DHT22;63353;48.702;8.884;2023-09-18T10:30:00;17.60;99.90
74822;DHT22;63353;48.702;8.884;2023-09-18T10:32:30;17.60;99.90
74822;DHT22;63353;48.702;8.884;2023-09-18T10:34:57;17.60;99.90
74822;DHT22;63353;48.702;8.884;2023-09-18T10:37:26;17.70;99.90
74822;DHT22;63353;48.702;8.884;2023-09-18T10:39:56;17.70;99.90
74822;DHT22;63353;48.702;8.884;2023-09-18T10:42:24;17.70;99.90
74822;DHT22;63353;48.702;8.884;2023-09-18T10:44:50;17.70;99.90
74822;DHT22;63353;48.702;8.884;2023-09-18T10:47:23;17.60;99.90
74822;DHT22;63353;48.702;8.884;2023-09-18T10:49:49;17.60;99.90
74822;DHT22;63353;48.702;8.884;2023-09-18T10:52:15;17.70;99.90
74822;DHT22;63353;48.702;8.884;2023-09-18T10:54:44;17.60;99.90
74822;DHT22;63353;48.702;8.884;2023-09-18T10:57:13;17.60;99.90
74822;DHT22;63353;48.702;8.884;2023-09-18T11:00:05;17.60;99.90
74822;DHT22;63353;48.702;8.884;2023-09-18T11:02:40;17.60;99.90
74822;DHT22;63353;48.702;8.884;2023-09-18T11:05:09;17.70;99.90
74822;DHT22;63353;48.702;8.884;2023-09-18T11:07:35;17.80;99.90
74822;DHT22;63353;48.702;8.884;2023-09-18T11:10:24;17.80;99.90
74822;DHT22;63353;48.702;8.884;2023-09-18T11:12:53;18.00;99.90
74822;DHT22;63353;48.702;8.884;2023-09-18T11:15:31;18.10;99.90
74822;DHT22;63353;48.702;8.884;2023-09-18T11:18:02;18.10;99.90
74822;DHT22;63353;48.702;8.884;2023-09-18T11:20:28;18.20;99.90
74822;DHT22;63353;48.702;8.884;2023-09-18T11:22:58;18.20;99.90
74822;DHT22;63353;48.702;8.884;2023-09-18T11:25:41;18.20;99.90
74822;DHT22;63353;48.702;8.884;2023-09-18T11:28:15;18.10;99.90
74822;DHT22;63353;48.702;8.884;2023-09-18T11:30:52;18.10;99.90
74822;DHT22;63353;48.702;8.884;2023-09-18T11:33:32;18.20;99.90
74822;DHT22;63353;48.702;8.884;2023-09-18T11:36:28;18.30;99.90
74822;DHT22;63353;48.702;8.884;2023-09-18T11:38:58;18.40;99.90
74822;DHT22;63353;48.702;8.884;2023-09-18T11:41:33;18.40;99.90
74822;DHT22;63353;48.702;8.884;2023-09-18T11:46:38;18.30;99.90
74822;DHT22;63353;48.702;8.884;2023-09-18T11:49:07;18.50;99.90
74822;DHT22;63353;48.702;8.884;2023-09-18T11:51:36;18.40;99.90
74822;DHT22;63353;48.702;8.884;2023-09-18T11:54:02;18.50;99.90
74822;DHT22;63353;48.702;8.884;2023-09-18T11:56:29;18.40;99.90
74822;DHT22;63353;48.702;8.884;2023-09-18T11:58:55;18.40;99.90
74822;DHT22;63353;48.702;8.884;2023-09-18T12:01:24;18.30;99.90
74822;DHT22;63353;48.702;8.884;2023-09-18T12:04:11;18.20;99.90
74822;DHT22;63353;48.702;8.884;2023-09-18T12:06:39;18.20;99.90
74822;DHT22;63353;48.702;8.884;2023-09-18T12:09:06;18.30;99.90
74822;DHT22;63353;48.702;8.884;2023-09-18T12:11:33;18.30;99.90
74822;DHT22;63353;48.702;8.884;2023-09-18T12:14:01;18.30;99.90
74822;DHT22;63353;48.702;8.884;2023-09-18T12:16:40;18.30;99.90
74822;DHT22;63353;48.702;8.884;2023-09-18T12:19:06;18.50;99.90
74822;DHT22;63353;48.702;8.884;2023-09-18T12:21:40;18.50;99.90
74822;DHT22;63353;48.702;8.884;2023-09-18T12:24:22;18.60;99.90
74822;DHT22;63353;48.702;8.884;2023-09-18T12:26:51;18.70;99.90
74822;DHT22;63353;48.702;8.884;2023-09-18T12:29:18;19.00;99.90
74822;DHT22;63353;48.702;8.884;2023-09-18T12:31:43;19.20;99.90
74822;DHT22;63353;48.702;8.884;2023-09-18T12:34:20;19.40;99.90
74822;DHT22;63353;48.702;8.884;2023-09-18T12:36:50;19.30;99.90
74822;DHT22;63353;48.702;8.884;2023-09-18T12:39:17;19.60;99.90
74822;DHT22;63353;48.702;8.884;2023-09-18T12:42:06;19.80;99.90
74822;DHT22;63353;48.702;8.884;2023-09-18T12:44:32;19.90;99.90
74822;DHT22;63353;48.702;8.884;2023-09-18T12:47:01;19.90;99.90
74822;DHT22;63353;48.702;8.884;2023-09-18T12:49:29;19.80;99.90
74822;DHT22;63353;48.702;8.884;2023-09-18T12:52:01;19.80;99.90
74822;DHT22;63353;48.702;8.884;2023-09-18T12:54:41;19.90;99.90
74822;DHT22;63353;48.702;8.884;2023-09-18T12:57:09;19.80;99.90
74822;DHT22;63353;48.702;8.884;2023-09-18T12:59:36;19.70;99.90
74822;DHT22;63353;48.702;8.884;2023-09-18T13:02:03;19.80;99.90
74822;DHT22;63353;48.702;8.884;2023-09-18T13:04:31;19.80;99.90
74822;DHT22;63353;48.702;8.884;2023-09-18T13:07:09;19.90;99.90
74822;DHT22;63353;48.702;8.884;2023-09-18T13:09:35;20.20;99.90
74822;DHT22;63353;48.702;8.884;2023-09-18T13:12:07;20.40;99.90
74822;DHT22;63353;48.702;8.884;2023-09-18T13:15:01;20.50;99.90
74822;DHT22;63353;48.702;8.884;2023-09-18T13:17:44;20.40;99.90
74822;DHT22;63353;48.702;8.884;2023-09-18T13:20:30;20.60;99.90
74822;DHT22;63353;48.702;8.884;2023-09-18T13:23:00;20.70;99.90
74822;DHT22;63353;48.702;8.884;2023-09-18T13:25:37;20.90;99.90
74822;DHT22;63353;48.702;8.884;2023-09-18T13:28:08;20.90;99.90
74822;DHT22;63353;48.702;8.884;2023-09-18T13:30:38;20.90;99.90
74822;DHT22;63353;48.702;8.884;2023-09-18T13:33:10;21.20;99.90
74822;DHT22;63353;48.702;8.884;2023-09-18T13:35:38;21.00;99.90
74822;DHT22;63353;48.702;8.884;2023-09-18T13:38:04;21.00;99.90
74822;DHT22;63353;48.702;8.884;2023-09-18T13:40:35;20.80;99.90
74822;DHT22;63353;48.702;8.884;2023-09-18T13:43:05;21.00;99.90
74822;DHT22;63353;48.702;8.884;2023-09-18T13:45:32;21.10;99.90
74822;DHT22;63353;48.702;8.884;2023-09-18T13:48:01;21.30;99.90
74822;DHT22;63353;48.702;8.884;2023-09-18T13:50:30;21.30;99.90
74822;DHT22;63353;48.702;8.884;2023-09-18T13:52:56;21.50;99.90
74822;DHT22;63353;48.702;8.884;2023-09-18T13:55:25;21.30;99.90
74822;DHT22;63353;48.702;8.884;2023-09-18T13:57:51;21.30;99.90
74822;DHT22;63353;48.702;8.884;2023-09-18T14:00:22;21.60;99.90
74822;DHT22;63353;48.702;8.884;2023-09-18T14:02:51;22.10;99.90
74822;DHT22;63353;48.702;8.884;2023-09-18T14:05:17;22.70;99.90
74822;DHT22;63353;48.702;8.884;2023-09-18T14:07:42;22.90;99.90
74822;DHT22;63353;48.702;8.884;2023-09-18T14:10:09;22.70;99.90
74822;DHT22;63353;48.702;8.884;2023-09-18T14:12:36;22.50;99.90
74822;DHT22;63353;48.702;8.884;2023-09-18T14:15:06;22.20;99.90
74822;DHT22;63353;48.702;8.884;2023-09-18T14:17:37;22.10;99.90
74822;DHT22;63353;48.702;8.884;2023-09-18T14:20:04;21.80;99.90
74822;DHT22;63353;48.702;8.884;2023-09-18T14:22:33;21.70;99.90
74822;DHT22;63353;48.702;8.884;2023-09-18T14:24:58;21.70;99.90
74822;DHT22;63353;48.702;8.884;2023-09-18T14:27:25;21.90;99.90
74822;DHT22;63353;48.702;8.884;2023-09-18T14:29:51;22.20;99.90
74822;DHT22;63353;48.702;8.884;2023-09-18T14:32:16;23.00;99.90
74822;DHT22;63353;48.702;8.884;2023-09-18T14:34:42;23.70;99.90
74822;DHT22;63353;48.702;8.884;2023-09-18T14:37:07;24.50;99.90
74822;DHT22;63353;48.702;8.884;2023-09-18T14:39:34;25.20;99.90
74822;DHT22;63353;48.702;8.884;2023-09-18T14:42:00;25.40;99.90
74822;DHT22;63353;48.702;8.884;2023-09-18T14:44:26;25.20;99.90
74822;DHT22;63353;48.702;8.884;2023-09-18T14:46:55;25.30;99.90
74822;DHT22;63353;48.702;8.884;2023-09-18T14:49:22;25.30;99.90
74822;DHT22;63353;48.702;8.884;2023-09-18T14:51:47;24.70;99.90
74822;DHT22;63353;48.702;8.884;2023-09-18T14:54:15;24.10;99.90
74822;DHT22;63353;48.702;8.884;2023-09-18T14:56:40;23.70;99.90
74822;DHT22;63353;48.702;8.884;2023-09-18T14:59:07;23.00;99.90
74822;DHT22;63353;48.702;8.884;2023-09-18T15:01:35;22.80;99.90
74822;DHT22;63353;48.702;8.884;2023-09-18T15:04:01;22.70;99.90
74822;DHT22;63353;48.702;8.884;2023-09-18T15:06:26;22.60;99.90
74822;DHT22;63353;48.702;8.884;2023-09-18T15:08:54;22.60;99.90
74822;DHT22;63353;48.702;8.884;2023-09-18T15:11:20;23.00;99.90
74822;DHT22;63353;48.702;8.884;2023-09-18T15:13:46;23.10;99.90
74822;DHT22;63353;48.702;8.884;2023-09-18T15:16:11;23.20;99.90
74822;DHT22;63353;48.702;8.884;2023-09-18T15:18:39;23.10;99.90
74822;DHT22;63353;48.702;8.884;2023-09-18T15:21:10;23.60;99.90
74822;DHT22;63353;48.702;8.884;2023-09-18T15:23:36;23.50;99.90
74822;DHT22;63353;48.702;8.884;2023-09-18T15:26:02;23.90;99.90
74822;DHT22;63353;48.702;8.884;2023-09-18T15:28:28;24.50;99.90
74822;DHT22;63353;48.702;8.884;2023-09-18T15:30:55;25.20;99.90
74822;DHT22;63353;48.702;8.884;2023-09-18T15:33:21;25.80;99.90
74822;DHT22;63353;48.702;8.884;2023-09-18T15:35:48;25.50;99.90
74822;DHT22;63353;48.702;8.884;2023-09-18T15:38:14;25.90;99.90
74822;DHT22;63353;48.702;8.884;2023-09-18T15:40:40;26.00;99.90
74822;DHT22;63353;48.702;8.884;2023-09-18T15:43:06;25.90;99.90
74822;DHT22;63353;48.702;8.884;2023-09-18T15:45:32;26.10;99.90
74822;DHT22;63353;48.702;8.884;2023-09-18T15:48:01;26.40;99.90
74822;DHT22;63353;48.702;8.884;2023-09-18T15:50:27;26.60;99.90
74822;DHT22;63353;48.702;8.884;2023-09-18T15:52:53;26.50;99.90